sensor_id;sensor_type;location;lat;lon;timestamp;P1;durP1;ratioP1;P2;durP2;ratioP2
39190;SDS011;24916;51.676;6.614;2023-02-18T00:01:50;46.40;;;31.73;;
39190;SDS011;24916;51.676;6.614;2023-02-18T00:04:16;46.22;;;32.15;;
39190;SDS011;24916;51.676;6.614;2023-02-18T00:06:41;51.50;;;33.72;;
39190;SDS011;24916;51.676;6.614;2023-02-18T00:09:06;43.65;;;32.17;;
39190;SDS011;24916;51.676;6.614;2023-02-18T00:11:33;50.72;;;32.55;;
39190;SDS011;24916;51.676;6.614;2023-02-18T00:14:00;52.25;;;33.40;;
39190;SDS011;24916;51.676;6.614;2023-02-18T00:16:26;50.63;;;35.20;;
39190;SDS011;24916;51.676;6.614;2023-02-18T00:18:55;53.45;;;34.65;;
39190;SDS011;24916;51.676;6.614;2023-02-18T00:21:21;51.58;;;33.33;;
39190;SDS011;24916;51.676;6.614;2023-02-18T00:23:46;50.97;;;33.58;;
39190;SDS011;24916;51.676;6.614;2023-02-18T00:26:12;62.70;;;35.90;;
39190;SDS011;24916;51.676;6.614;2023-02-18T00:28:38;58.75;;;34.10;;
39190;SDS011;24916;51.676;6.614;2023-02-18T00:31:12;49.33;;;34.03;;
39190;SDS011;24916;51.676;6.614;2023-02-18T00:33:37;48.75;;;33.45;;
39190;SDS011;24916;51.676;6.614;2023-02-18T00:36:03;53.47;;;34.00;;
39190;SDS011;24916;51.676;6.614;2023-02-18T00:38:29;60.20;;;35.42;;
39190;SDS011;24916;51.676;6.614;2023-02-18T00:40:54;51.55;;;34.05;;
39190;SDS011;24916;51.676;6.614;2023-02-18T00:43:19;55.88;;;36.08;;
39190;SDS011;24916;51.676;6.614;2023-02-18T00:45:44;49.75;;;32.55;;
39190;SDS011;24916;51.676;6.614;2023-02-18T00:48:10;55.63;;;32.58;;
39190;SDS011;24916;51.676;6.614;2023-02-18T00:50:35;56.33;;;35.97;;
39190;SDS011;24916;51.676;6.614;2023-02-18T00:53:00;55.15;;;34.50;;
39190;SDS011;24916;51.676;6.614;2023-02-18T00:55:25;53.58;;;33.75;;
39190;SDS011;24916;51.676;6.614;2023-02-18T00:57:51;51.95;;;32.33;;
39190;SDS011;24916;51.676;6.614;2023-02-18T01:00:16;49.50;;;33.90;;
39190;SDS011;24916;51.676;6.614;2023-02-18T01:02:41;48.78;;;31.73;;
39190;SDS011;24916;51.676;6.614;2023-02-18T01:05:07;57.08;;;32.33;;
39190;SDS011;24916;51.676;6.614;2023-02-18T01:07:33;43.40;;;30.02;;
39190;SDS011;24916;51.676;6.614;2023-02-18T01:09:58;52.65;;;31.67;;
39190;SDS011;24916;51.676;6.614;2023-02-18T01:12:23;58.90;;;32.35;;
39190;SDS011;24916;51.676;6.614;2023-02-18T01:14:48;51.85;;;31.55;;
39190;SDS011;24916;51.676;6.614;2023-02-18T01:17:14;55.25;;;30.50;;
39190;SDS011;24916;51.676;6.614;2023-02-18T01:19:39;54.63;;;31.48;;
39190;SDS011;24916;51.676;6.614;2023-02-18T01:22:04;53.47;;;31.08;;
39190;SDS011;24916;51.676;6.614;2023-02-18T01:24:30;49.42;;;31.67;;
39190;SDS011;24916;51.676;6.614;2023-02-18T01:26:56;47.42;;;30.42;;
39190;SDS011;24916;51.676;6.614;2023-02-18T01:29:21;50.92;;;30.30;;
39190;SDS011;24916;51.676;6.614;2023-02-18T01:31:46;47.60;;;30.27;;
39190;SDS011;24916;51.676;6.614;2023-02-18T01:34:11;50.15;;;29.63;;
39190;SDS011;24916;51.676;6.614;2023-02-18T01:36:37;49.95;;;30.27;;
39190;SDS011;24916;51.676;6.614;2023-02-18T01:39:03;51.17;;;30.20;;
39190;SDS011;24916;51.676;6.614;2023-02-18T01:41:29;48.17;;;28.40;;
39190;SDS011;24916;51.676;6.614;2023-02-18T01:44:14;45.05;;;29.75;;
39190;SDS011;24916;51.676;6.614;2023-02-18T01:46:39;44.40;;;28.10;;
39190;SDS011;24916;51.676;6.614;2023-02-18T01:49:05;49.78;;;27.77;;
39190;SDS011;24916;51.676;6.614;2023-02-18T01:51:31;52.13;;;29.75;;
39190;SDS011;24916;51.676;6.614;2023-02-18T01:54:00;44.35;;;28.75;;
39190;SDS011;24916;51.676;6.614;2023-02-18T01:56:30;51.83;;;28.20;;
39190;SDS011;24916;51.676;6.614;2023-02-18T01:58:57;43.13;;;28.30;;
39190;SDS011;24916;51.676;6.614;2023-02-18T02:01:24;44.28;;;28.05;;
39190;SDS011;24916;51.676;6.614;2023-02-18T02:03:49;38.03;;;25.65;;
39190;SDS011;24916;51.676;6.614;2023-02-18T02:06:18;42.58;;;25.00;;
39190;SDS011;24916;51.676;6.614;2023-02-18T02:08:43;39.42;;;26.90;;
39190;SDS011;24916;51.676;6.614;2023-02-18T02:11:13;41.63;;;26.30;;
39190;SDS011;24916;51.676;6.614;2023-02-18T02:14:01;37.95;;;25.17;;
39190;SDS011;24916;51.676;6.614;2023-02-18T02:16:34;45.72;;;26.48;;
39190;SDS011;24916;51.676;6.614;2023-02-18T02:35:19;41.38;;;24.00;;
39190;SDS011;24916;51.676;6.614;2023-02-18T02:45:44;31.10;;;20.50;;
39190;SDS011;24916;51.676;6.614;2023-02-18T02:48:36;33.88;;;20.75;;
39190;SDS011;24916;51.676;6.614;2023-02-18T02:51:03;32.47;;;19.90;;
39190;SDS011;24916;51.676;6.614;2023-02-18T02:53:30;24.52;;;17.38;;
39190;SDS011;24916;51.676;6.614;2023-02-18T02:55:57;25.52;;;16.55;;
39190;SDS011;24916;51.676;6.614;2023-02-18T02:58:22;21.17;;;15.70;;
39190;SDS011;24916;51.676;6.614;2023-02-18T03:11:05;20.48;;;13.13;;
39190;SDS011;24916;51.676;6.614;2023-02-18T03:16:05;21.55;;;14.05;;
39190;SDS011;24916;51.676;6.614;2023-02-18T03:21:09;20.38;;;13.82;;
39190;SDS011;24916;51.676;6.614;2023-02-18T03:23:41;15.90;;;13.60;;
39190;SDS011;24916;51.676;6.614;2023-02-18T03:26:10;20.98;;;13.63;;
39190;SDS011;24916;51.676;6.614;2023-02-18T03:28:36;18.95;;;13.48;;
39190;SDS011;24916;51.676;6.614;2023-02-18T03:31:06;22.25;;;13.93;;
39190;SDS011;24916;51.676;6.614;2023-02-18T03:33:37;20.58;;;14.13;;
39190;SDS011;24916;51.676;6.614;2023-02-18T03:36:03;19.52;;;14.52;;
39190;SDS011;24916;51.676;6.614;2023-02-18T03:38:30;19.73;;;14.20;;
39190;SDS011;24916;51.676;6.614;2023-02-18T03:40:59;21.00;;;14.73;;
39190;SDS011;24916;51.676;6.614;2023-02-18T03:43:24;18.02;;;13.73;;
39190;SDS011;24916;51.676;6.614;2023-02-18T03:45:49;21.30;;;14.82;;
39190;SDS011;24916;51.676;6.614;2023-02-18T03:48:15;22.10;;;14.57;;
39190;SDS011;24916;51.676;6.614;2023-02-18T03:50:40;20.00;;;14.68;;
39190;SDS011;24916;51.676;6.614;2023-02-18T03:53:05;21.60;;;15.10;;
39190;SDS011;24916;51.676;6.614;2023-02-18T03:55:30;21.05;;;14.27;;
39190;SDS011;24916;51.676;6.614;2023-02-18T03:57:56;21.15;;;14.98;;
39190;SDS011;24916;51.676;6.614;2023-02-18T04:00:21;22.80;;;14.93;;
39190;SDS011;24916;51.676;6.614;2023-02-18T04:02:46;25.42;;;16.33;;
39190;SDS011;24916;51.676;6.614;2023-02-18T04:05:11;25.55;;;16.23;;
39190;SDS011;24916;51.676;6.614;2023-02-18T04:07:37;26.75;;;16.38;;
39190;SDS011;24916;51.676;6.614;2023-02-18T04:10:03;25.55;;;16.48;;
39190;SDS011;24916;51.676;6.614;2023-02-18T04:12:29;25.02;;;16.15;;
39190;SDS011;24916;51.676;6.614;2023-02-18T04:14:54;21.75;;;16.55;;
39190;SDS011;24916;51.676;6.614;2023-02-18T04:17:19;28.35;;;16.00;;
39190;SDS011;24916;51.676;6.614;2023-02-18T04:19:44;27.05;;;15.88;;
39190;SDS011;24916;51.676;6.614;2023-02-18T04:22:09;22.88;;;15.43;;
39190;SDS011;24916;51.676;6.614;2023-02-18T04:24:35;24.00;;;15.82;;
39190;SDS011;24916;51.676;6.614;2023-02-18T04:27:00;25.23;;;15.77;;
39190;SDS011;24916;51.676;6.614;2023-02-18T04:29:25;27.30;;;16.33;;
39190;SDS011;24916;51.676;6.614;2023-02-18T04:31:50;27.60;;;15.35;;
39190;SDS011;24916;51.676;6.614;2023-02-18T04:34:16;24.27;;;15.02;;
39190;SDS011;24916;51.676;6.614;2023-02-18T04:36:41;18.80;;;13.65;;
39190;SDS011;24916;51.676;6.614;2023-02-18T04:39:06;21.75;;;12.93;;
39190;SDS011;24916;51.676;6.614;2023-02-18T04:41:31;18.13;;;11.85;;
39190;SDS011;24916;51.676;6.614;2023-02-18T04:43:57;17.77;;;11.48;;
39190;SDS011;24916;51.676;6.614;2023-02-18T04:46:23;13.13;;;10.00;;
39190;SDS011;24916;51.676;6.614;2023-02-18T04:48:48;12.50;;;8.90;;
39190;SDS011;24916;51.676;6.614;2023-02-18T04:51:14;12.40;;;8.30;;
39190;SDS011;24916;51.676;6.614;2023-02-18T04:53:39;12.27;;;7.43;;
39190;SDS011;24916;51.676;6.614;2023-02-18T04:56:04;9.95;;;7.43;;
39190;SDS011;24916;51.676;6.614;2023-02-18T04:58:29;10.02;;;6.90;;
39190;SDS011;24916;51.676;6.614;2023-02-18T05:00:59;10.35;;;6.57;;
39190;SDS011;24916;51.676;6.614;2023-02-18T05:03:24;8.77;;;5.60;;
39190;SDS011;24916;51.676;6.614;2023-02-18T05:05:49;6.82;;;5.30;;
39190;SDS011;24916;51.676;6.614;2023-02-18T05:08:15;6.22;;;4.30;;
39190;SDS011;24916;51.676;6.614;2023-02-18T05:10:40;6.03;;;4.38;;
39190;SDS011;24916;51.676;6.614;2023-02-18T05:13:05;8.15;;;4.63;;
39190;SDS011;24916;51.676;6.614;2023-02-18T05:15:30;6.07;;;4.38;;
39190;SDS011;24916;51.676;6.614;2023-02-18T05:17:56;6.60;;;4.47;;
39190;SDS011;24916;51.676;6.614;2023-02-18T05:20:21;5.18;;;3.78;;
39190;SDS011;24916;51.676;6.614;2023-02-18T05:22:46;4.53;;;3.67;;
39190;SDS011;24916;51.676;6.614;2023-02-18T05:25:11;4.60;;;3.72;;
39190;SDS011;24916;51.676;6.614;2023-02-18T05:27:36;7.18;;;3.47;;
39190;SDS011;24916;51.676;6.614;2023-02-18T05:30:02;4.03;;;3.08;;
39190;SDS011;24916;51.676;6.614;2023-02-18T05:32:27;4.13;;;3.03;;
39190;SDS011;24916;51.676;6.614;2023-02-18T05:34:53;3.83;;;2.97;;
39190;SDS011;24916;51.676;6.614;2023-02-18T05:37:18;3.38;;;2.63;;
39190;SDS011;24916;51.676;6.614;2023-02-18T05:39:43;4.10;;;2.58;;
39190;SDS011;24916;51.676;6.614;2023-02-18T05:42:09;4.53;;;2.97;;
39190;SDS011;24916;51.676;6.614;2023-02-18T05:44:34;3.42;;;2.40;;
39190;SDS011;24916;51.676;6.614;2023-02-18T05:47:01;4.32;;;2.30;;
39190;SDS011;24916;51.676;6.614;2023-02-18T05:49:27;2.75;;;2.22;;
39190;SDS011;24916;51.676;6.614;2023-02-18T05:51:52;3.03;;;2.22;;
39190;SDS011;24916;51.676;6.614;2023-02-18T05:54:18;2.72;;;2.08;;
39190;SDS011;24916;51.676;6.614;2023-02-18T05:56:43;3.03;;;2.28;;
39190;SDS011;24916;51.676;6.614;2023-02-18T05:59:08;3.65;;;2.35;;
39190;SDS011;24916;51.676;6.614;2023-02-18T06:01:33;4.30;;;2.25;;
39190;SDS011;24916;51.676;6.614;2023-02-18T06:03:59;3.08;;;2.13;;
39190;SDS011;24916;51.676;6.614;2023-02-18T06:06:24;3.03;;;2.35;;
39190;SDS011;24916;51.676;6.614;2023-02-18T06:08:49;3.10;;;2.38;;
39190;SDS011;24916;51.676;6.614;2023-02-18T06:11:14;2.38;;;1.95;;
39190;SDS011;24916;51.676;6.614;2023-02-18T06:13:40;2.55;;;2.08;;
39190;SDS011;24916;51.676;6.614;2023-02-18T06:16:05;3.30;;;2.25;;
39190;SDS011;24916;51.676;6.614;2023-02-18T06:18:30;3.22;;;1.70;;
39190;SDS011;24916;51.676;6.614;2023-02-18T06:20:55;2.60;;;1.92;;
39190;SDS011;24916;51.676;6.614;2023-02-18T06:23:20;2.15;;;1.70;;
39190;SDS011;24916;51.676;6.614;2023-02-18T06:25:47;3.28;;;1.98;;
39190;SDS011;24916;51.676;6.614;2023-02-18T06:28:12;3.67;;;1.90;;
39190;SDS011;24916;51.676;6.614;2023-02-18T06:30:37;3.03;;;2.00;;
39190;SDS011;24916;51.676;6.614;2023-02-18T06:33:03;3.13;;;1.95;;
39190;SDS011;24916;51.676;6.614;2023-02-18T06:35:28;1.77;;;1.67;;
39190;SDS011;24916;51.676;6.614;2023-02-18T06:37:53;2.15;;;1.80;;
39190;SDS011;24916;51.676;6.614;2023-02-18T06:40:19;2.05;;;1.85;;
39190;SDS011;24916;51.676;6.614;2023-02-18T06:42:44;3.60;;;1.98;;
39190;SDS011;24916;51.676;6.614;2023-02-18T06:45:09;1.80;;;1.63;;
39190;SDS011;24916;51.676;6.614;2023-02-18T06:47:34;2.00;;;1.60;;
39190;SDS011;24916;51.676;6.614;2023-02-18T06:50:00;1.65;;;1.55;;
39190;SDS011;24916;51.676;6.614;2023-02-18T06:52:25;2.90;;;2.13;;
39190;SDS011;24916;51.676;6.614;2023-02-18T06:54:50;1.90;;;1.50;;
39190;SDS011;24916;51.676;6.614;2023-02-18T06:57:16;1.67;;;1.58;;
39190;SDS011;24916;51.676;6.614;2023-02-18T06:59:41;1.13;;;1.02;;
39190;SDS011;24916;51.676;6.614;2023-02-18T07:02:06;2.28;;;1.50;;
39190;SDS011;24916;51.676;6.614;2023-02-18T07:04:31;2.80;;;1.70;;
39190;SDS011;24916;51.676;6.614;2023-02-18T07:06:56;1.90;;;1.70;;
39190;SDS011;24916;51.676;6.614;2023-02-18T07:09:22;2.22;;;2.03;;
39190;SDS011;24916;51.676;6.614;2023-02-18T07:11:47;2.00;;;1.80;;
39190;SDS011;24916;51.676;6.614;2023-02-18T07:14:12;2.20;;;1.88;;
39190;SDS011;24916;51.676;6.614;2023-02-18T07:16:37;2.40;;;1.70;;
39190;SDS011;24916;51.676;6.614;2023-02-18T07:19:03;1.92;;;1.65;;
39190;SDS011;24916;51.676;6.614;2023-02-18T07:21:28;2.35;;;2.05;;
39190;SDS011;24916;51.676;6.614;2023-02-18T07:23:53;2.92;;;1.88;;
39190;SDS011;24916;51.676;6.614;2023-02-18T07:26:18;2.88;;;1.90;;
39190;SDS011;24916;51.676;6.614;2023-02-18T07:28:44;2.38;;;1.73;;
39190;SDS011;24916;51.676;6.614;2023-02-18T07:31:09;2.40;;;2.08;;
39190;SDS011;24916;51.676;6.614;2023-02-18T07:33:34;3.10;;;2.13;;
39190;SDS011;24916;51.676;6.614;2023-02-18T07:36:00;3.60;;;2.15;;
39190;SDS011;24916;51.676;6.614;2023-02-18T07:38:25;2.40;;;2.03;;
39190;SDS011;24916;51.676;6.614;2023-02-18T07:40:51;2.63;;;2.25;;
39190;SDS011;24916;51.676;6.614;2023-02-18T07:43:16;3.83;;;2.17;;
39190;SDS011;24916;51.676;6.614;2023-02-18T07:45:42;4.18;;;2.70;;
39190;SDS011;24916;51.676;6.614;2023-02-18T07:48:07;3.58;;;2.88;;
39190;SDS011;24916;51.676;6.614;2023-02-18T07:50:32;2.88;;;2.33;;
39190;SDS011;24916;51.676;6.614;2023-02-18T07:53:01;2.88;;;2.10;;
39190;SDS011;24916;51.676;6.614;2023-02-18T07:55:30;3.10;;;2.28;;
39190;SDS011;24916;51.676;6.614;2023-02-18T07:58:34;4.65;;;2.25;;
39190;SDS011;24916;51.676;6.614;2023-02-18T08:00:58;3.22;;;2.40;;
39190;SDS011;24916;51.676;6.614;2023-02-18T08:03:28;5.40;;;2.55;;
39190;SDS011;24916;51.676;6.614;2023-02-18T08:05:53;3.47;;;2.50;;
39190;SDS011;24916;51.676;6.614;2023-02-18T08:08:20;7.32;;;4.93;;
39190;SDS011;24916;51.676;6.614;2023-02-18T08:10:45;6.20;;;3.92;;
39190;SDS011;24916;51.676;6.614;2023-02-18T08:13:11;2.97;;;2.50;;
39190;SDS011;24916;51.676;6.614;2023-02-18T08:15:36;3.20;;;2.65;;
39190;SDS011;24916;51.676;6.614;2023-02-18T08:18:02;3.40;;;2.63;;
39190;SDS011;24916;51.676;6.614;2023-02-18T08:20:28;2.22;;;2.00;;
39190;SDS011;24916;51.676;6.614;2023-02-18T08:22:54;3.08;;;1.83;;
39190;SDS011;24916;51.676;6.614;2023-02-18T08:25:19;4.65;;;1.52;;
39190;SDS011;24916;51.676;6.614;2023-02-18T08:27:45;3.15;;;2.30;;
39190;SDS011;24916;51.676;6.614;2023-02-18T08:30:10;2.58;;;2.05;;
39190;SDS011;24916;51.676;6.614;2023-02-18T08:32:35;4.03;;;2.28;;
39190;SDS011;24916;51.676;6.614;2023-02-18T08:35:01;3.85;;;2.42;;
39190;SDS011;24916;51.676;6.614;2023-02-18T08:37:27;4.85;;;2.58;;
39190;SDS011;24916;51.676;6.614;2023-02-18T08:39:52;8.10;;;2.88;;
39190;SDS011;24916;51.676;6.614;2023-02-18T08:42:17;5.47;;;3.45;;
39190;SDS011;24916;51.676;6.614;2023-02-18T08:44:43;10.00;;;3.60;;
39190;SDS011;24916;51.676;6.614;2023-02-18T08:47:08;6.03;;;3.20;;
39190;SDS011;24916;51.676;6.614;2023-02-18T08:49:33;5.57;;;3.67;;
39190;SDS011;24916;51.676;6.614;2023-02-18T08:52:01;7.93;;;3.97;;
39190;SDS011;24916;51.676;6.614;2023-02-18T08:54:26;13.50;;;4.28;;
39190;SDS011;24916;51.676;6.614;2023-02-18T08:56:53;12.50;;;3.25;;
39190;SDS011;24916;51.676;6.614;2023-02-18T08:59:18;12.23;;;4.28;;
39190;SDS011;24916;51.676;6.614;2023-02-18T09:01:43;15.07;;;5.80;;
39190;SDS011;24916;51.676;6.614;2023-02-18T09:04:08;11.68;;;4.63;;
39190;SDS011;24916;51.676;6.614;2023-02-18T09:06:35;12.32;;;4.05;;
39190;SDS011;24916;51.676;6.614;2023-02-18T09:09:03;10.27;;;3.90;;
39190;SDS011;24916;51.676;6.614;2023-02-18T09:11:32;10.13;;;4.00;;
39190;SDS011;24916;51.676;6.614;2023-02-18T09:13:57;9.90;;;3.97;;
39190;SDS011;24916;51.676;6.614;2023-02-18T09:16:22;10.35;;;4.00;;
39190;SDS011;24916;51.676;6.614;2023-02-18T09:18:48;20.50;;;5.03;;
39190;SDS011;24916;51.676;6.614;2023-02-18T09:21:14;8.80;;;5.00;;
39190;SDS011;24916;51.676;6.614;2023-02-18T09:23:39;12.52;;;4.38;;
39190;SDS011;24916;51.676;6.614;2023-02-18T09:26:06;16.85;;;5.43;;
39190;SDS011;24916;51.676;6.614;2023-02-18T09:28:31;9.00;;;5.25;;
39190;SDS011;24916;51.676;6.614;2023-02-18T09:30:57;11.80;;;5.00;;
39190;SDS011;24916;51.676;6.614;2023-02-18T09:33:24;11.55;;;5.72;;
39190;SDS011;24916;51.676;6.614;2023-02-18T09:35:49;16.02;;;6.70;;
39190;SDS011;24916;51.676;6.614;2023-02-18T09:38:15;16.83;;;6.28;;
39190;SDS011;24916;51.676;6.614;2023-02-18T09:40:43;14.88;;;6.78;;
39190;SDS011;24916;51.676;6.614;2023-02-18T09:43:12;14.10;;;6.05;;
39190;SDS011;24916;51.676;6.614;2023-02-18T09:45:42;12.10;;;6.55;;
39190;SDS011;24916;51.676;6.614;2023-02-18T09:48:07;14.98;;;6.72;;
39190;SDS011;24916;51.676;6.614;2023-02-18T09:50:33;16.83;;;6.30;;
39190;SDS011;24916;51.676;6.614;2023-02-18T09:52:59;11.27;;;6.32;;
39190;SDS011;24916;51.676;6.614;2023-02-18T09:55:27;14.48;;;5.85;;
39190;SDS011;24916;51.676;6.614;2023-02-18T09:58:00;15.05;;;6.75;;
39190;SDS011;24916;51.676;6.614;2023-02-18T10:03:00;17.25;;;6.20;;
39190;SDS011;24916;51.676;6.614;2023-02-18T10:05:29;13.68;;;5.72;;
39190;SDS011;24916;51.676;6.614;2023-02-18T10:07:56;17.90;;;6.63;;
39190;SDS011;24916;51.676;6.614;2023-02-18T10:12:47;20.88;;;7.35;;
39190;SDS011;24916;51.676;6.614;2023-02-18T10:15:19;16.98;;;6.63;;
39190;SDS011;24916;51.676;6.614;2023-02-18T10:17:45;12.77;;;6.30;;
39190;SDS011;24916;51.676;6.614;2023-02-18T10:20:14;17.23;;;6.35;;
39190;SDS011;24916;51.676;6.614;2023-02-18T10:22:40;15.57;;;6.40;;
39190;SDS011;24916;51.676;6.614;2023-02-18T10:25:06;21.60;;;6.47;;
39190;SDS011;24916;51.676;6.614;2023-02-18T10:27:34;24.10;;;6.40;;
39190;SDS011;24916;51.676;6.614;2023-02-18T10:30:03;16.35;;;5.70;;
39190;SDS011;24916;51.676;6.614;2023-02-18T10:32:37;18.60;;;5.95;;
39190;SDS011;24916;51.676;6.614;2023-02-18T10:40:02;19.30;;;6.20;;
39190;SDS011;24916;51.676;6.614;2023-02-18T10:47:33;15.38;;;5.80;;
39190;SDS011;24916;51.676;6.614;2023-02-18T10:52:37;18.73;;;5.10;;
39190;SDS011;24916;51.676;6.614;2023-02-18T10:55:04;10.98;;;4.90;;
39190;SDS011;24916;51.676;6.614;2023-02-18T10:57:30;22.25;;;5.65;;
39190;SDS011;24916;51.676;6.614;2023-02-18T11:02:28;9.73;;;4.65;;
39190;SDS011;24916;51.676;6.614;2023-02-18T11:04:56;15.02;;;4.80;;
39190;SDS011;24916;51.676;6.614;2023-02-18T11:07:24;18.00;;;5.40;;
39190;SDS011;24916;51.676;6.614;2023-02-18T11:14:45;13.27;;;5.15;;
39190;SDS011;24916;51.676;6.614;2023-02-18T11:17:15;17.90;;;5.47;;
39190;SDS011;24916;51.676;6.614;2023-02-18T11:19:41;14.30;;;6.00;;
39190;SDS011;24916;51.676;6.614;2023-02-18T11:22:08;10.23;;;5.00;;
39190;SDS011;24916;51.676;6.614;2023-02-18T11:24:37;13.30;;;5.15;;
39190;SDS011;24916;51.676;6.614;2023-02-18T11:27:07;12.60;;;5.30;;
39190;SDS011;24916;51.676;6.614;2023-02-18T11:29:32;15.05;;;5.82;;
39190;SDS011;24916;51.676;6.614;2023-02-18T11:31:58;12.82;;;5.47;;
39190;SDS011;24916;51.676;6.614;2023-02-18T11:34:28;11.32;;;5.43;;
39190;SDS011;24916;51.676;6.614;2023-02-18T11:36:54;11.52;;;5.82;;
39190;SDS011;24916;51.676;6.614;2023-02-18T11:39:31;16.30;;;6.00;;
39190;SDS011;24916;51.676;6.614;2023-02-18T11:49:22;15.63;;;5.57;;
39190;SDS011;24916;51.676;6.614;2023-02-18T11:51:48;11.93;;;6.28;;
39190;SDS011;24916;51.676;6.614;2023-02-18T11:54:28;11.77;;;6.68;;
39190;SDS011;24916;51.676;6.614;2023-02-18T11:59:21;11.75;;;6.53;;
39190;SDS011;24916;51.676;6.614;2023-02-18T12:01:50;9.38;;;6.00;;
39190;SDS011;24916;51.676;6.614;2023-02-18T12:04:18;10.27;;;6.90;;
39190;SDS011;24916;51.676;6.614;2023-02-18T12:06:48;9.48;;;6.30;;
39190;SDS011;24916;51.676;6.614;2023-02-18T12:11:43;11.70;;;6.70;;
39190;SDS011;24916;51.676;6.614;2023-02-18T12:14:21;9.63;;;7.10;;
39190;SDS011;24916;51.676;6.614;2023-02-18T12:21:50;12.02;;;7.75;;
39190;SDS011;24916;51.676;6.614;2023-02-18T12:24:25;11.60;;;7.07;;
39190;SDS011;24916;51.676;6.614;2023-02-18T12:31:51;10.43;;;6.20;;
39190;SDS011;24916;51.676;6.614;2023-02-18T12:44:38;5.95;;;5.35;;
39190;SDS011;24916;51.676;6.614;2023-02-18T12:57:37;11.83;;;6.67;;
39190;SDS011;24916;51.676;6.614;2023-02-18T13:15:25;7.55;;;6.80;;
39190;SDS011;24916;51.676;6.614;2023-02-18T13:17:53;10.70;;;5.93;;
39190;SDS011;24916;51.676;6.614;2023-02-18T13:20:22;9.90;;;6.22;;
39190;SDS011;24916;51.676;6.614;2023-02-18T13:22:50;10.95;;;6.30;;
39190;SDS011;24916;51.676;6.614;2023-02-18T13:25:17;12.82;;;7.25;;
39190;SDS011;24916;51.676;6.614;2023-02-18T13:32:38;10.20;;;5.85;;
39190;SDS011;24916;51.676;6.614;2023-02-18T13:35:07;8.95;;;5.57;;
39190;SDS011;24916;51.676;6.614;2023-02-18T13:40:08;12.97;;;5.57;;
39190;SDS011;24916;51.676;6.614;2023-02-18T13:42:37;11.85;;;6.10;;
39190;SDS011;24916;51.676;6.614;2023-02-18T13:45:05;11.23;;;6.03;;
39190;SDS011;24916;51.676;6.614;2023-02-18T13:50:12;13.90;;;6.25;;
39190;SDS011;24916;51.676;6.614;2023-02-18T13:52:37;10.40;;;6.45;;
39190;SDS011;24916;51.676;6.614;2023-02-18T13:55:03;12.00;;;6.40;;
39190;SDS011;24916;51.676;6.614;2023-02-18T13:57:28;11.32;;;6.82;;
39190;SDS011;24916;51.676;6.614;2023-02-18T14:00:03;10.10;;;6.15;;
39190;SDS011;24916;51.676;6.614;2023-02-18T14:02:31;12.50;;;6.75;;
39190;SDS011;24916;51.676;6.614;2023-02-18T14:05:13;17.02;;;6.68;;
39190;SDS011;24916;51.676;6.614;2023-02-18T14:07:44;10.00;;;6.85;;
39190;SDS011;24916;51.676;6.614;2023-02-18T14:18:07;18.23;;;6.53;;
39190;SDS011;24916;51.676;6.614;2023-02-18T14:23:04;10.85;;;6.72;;
39190;SDS011;24916;51.676;6.614;2023-02-18T14:25:37;16.70;;;6.87;;
39190;SDS011;24916;51.676;6.614;2023-02-18T14:28:11;12.75;;;5.85;;
39190;SDS011;24916;51.676;6.614;2023-02-18T14:30:48;15.13;;;6.10;;
39190;SDS011;24916;51.676;6.614;2023-02-18T14:33:14;11.43;;;6.28;;
39190;SDS011;24916;51.676;6.614;2023-02-18T14:35:54;13.70;;;6.38;;
39190;SDS011;24916;51.676;6.614;2023-02-18T14:38:24;12.32;;;7.07;;
39190;SDS011;24916;51.676;6.614;2023-02-18T14:40:55;14.40;;;6.45;;
39190;SDS011;24916;51.676;6.614;2023-02-18T14:46:27;14.70;;;6.90;;
39190;SDS011;24916;51.676;6.614;2023-02-18T14:51:38;17.10;;;8.00;;
39190;SDS011;24916;51.676;6.614;2023-02-18T14:54:05;13.60;;;6.72;;
39190;SDS011;24916;51.676;6.614;2023-02-18T14:56:30;11.80;;;6.35;;
39190;SDS011;24916;51.676;6.614;2023-02-18T14:58:57;13.30;;;6.10;;
39190;SDS011;24916;51.676;6.614;2023-02-18T15:01:26;17.52;;;6.78;;
39190;SDS011;24916;51.676;6.614;2023-02-18T15:03:52;10.70;;;6.13;;
39190;SDS011;24916;51.676;6.614;2023-02-18T15:06:24;10.70;;;6.25;;
39190;SDS011;24916;51.676;6.614;2023-02-18T15:08:50;10.80;;;6.13;;
39190;SDS011;24916;51.676;6.614;2023-02-18T15:11:15;12.15;;;6.47;;
39190;SDS011;24916;51.676;6.614;2023-02-18T15:13:42;12.35;;;5.95;;
39190;SDS011;24916;51.676;6.614;2023-02-18T15:16:08;8.40;;;5.38;;
39190;SDS011;24916;51.676;6.614;2023-02-18T15:18:37;8.35;;;4.68;;
39190;SDS011;24916;51.676;6.614;2023-02-18T15:21:06;13.85;;;5.47;;
39190;SDS011;24916;51.676;6.614;2023-02-18T15:23:36;12.82;;;5.10;;
39190;SDS011;24916;51.676;6.614;2023-02-18T15:26:02;10.35;;;4.03;;
39190;SDS011;24916;51.676;6.614;2023-02-18T15:28:29;11.23;;;4.18;;
39190;SDS011;24916;51.676;6.614;2023-02-18T15:30:56;11.20;;;5.38;;
39190;SDS011;24916;51.676;6.614;2023-02-18T15:33:21;11.77;;;5.05;;
39190;SDS011;24916;51.676;6.614;2023-02-18T15:35:46;11.93;;;4.72;;
39190;SDS011;24916;51.676;6.614;2023-02-18T15:38:13;12.18;;;4.82;;
39190;SDS011;24916;51.676;6.614;2023-02-18T15:40:39;9.70;;;4.80;;
39190;SDS011;24916;51.676;6.614;2023-02-18T15:43:04;10.63;;;4.50;;
39190;SDS011;24916;51.676;6.614;2023-02-18T15:47:56;13.23;;;4.10;;
39190;SDS011;24916;51.676;6.614;2023-02-18T15:50:25;10.23;;;3.80;;
39190;SDS011;24916;51.676;6.614;2023-02-18T15:52:52;5.53;;;3.08;;
39190;SDS011;24916;51.676;6.614;2023-02-18T15:55:21;10.38;;;3.53;;
39190;SDS011;24916;51.676;6.614;2023-02-18T15:57:48;12.00;;;4.82;;
39190;SDS011;24916;51.676;6.614;2023-02-18T16:00:36;10.65;;;4.95;;
39190;SDS011;24916;51.676;6.614;2023-02-18T16:05:25;11.57;;;3.65;;
39190;SDS011;24916;51.676;6.614;2023-02-18T16:07:52;10.05;;;3.40;;
39190;SDS011;24916;51.676;6.614;2023-02-18T16:12:46;8.25;;;2.55;;
39190;SDS011;24916;51.676;6.614;2023-02-18T16:15:15;11.13;;;3.13;;
39190;SDS011;24916;51.676;6.614;2023-02-18T16:17:42;10.35;;;3.05;;
39190;SDS011;24916;51.676;6.614;2023-02-18T16:20:16;15.13;;;3.78;;
39190;SDS011;24916;51.676;6.614;2023-02-18T16:22:43;15.50;;;3.40;;
39190;SDS011;24916;51.676;6.614;2023-02-18T16:27:37;13.13;;;3.75;;
39190;SDS011;24916;51.676;6.614;2023-02-18T16:32:41;11.15;;;3.08;;
39190;SDS011;24916;51.676;6.614;2023-02-18T16:35:07;5.82;;;2.80;;
39190;SDS011;24916;51.676;6.614;2023-02-18T16:37:32;6.45;;;2.22;;
39190;SDS011;24916;51.676;6.614;2023-02-18T16:40:26;6.93;;;2.83;;
39190;SDS011;24916;51.676;6.614;2023-02-18T16:45:14;7.63;;;2.33;;
39190;SDS011;24916;51.676;6.614;2023-02-18T16:47:40;9.50;;;2.83;;
39190;SDS011;24916;51.676;6.614;2023-02-18T16:50:09;9.07;;;2.75;;
39190;SDS011;24916;51.676;6.614;2023-02-18T16:52:38;7.15;;;2.95;;
39190;SDS011;24916;51.676;6.614;2023-02-18T16:55:07;7.00;;;2.65;;
39190;SDS011;24916;51.676;6.614;2023-02-18T16:57:40;8.80;;;2.25;;
39190;SDS011;24916;51.676;6.614;2023-02-18T17:00:05;7.60;;;2.67;;
39190;SDS011;24916;51.676;6.614;2023-02-18T17:02:30;10.93;;;3.97;;
39190;SDS011;24916;51.676;6.614;2023-02-18T17:04:56;8.48;;;2.90;;
39190;SDS011;24916;51.676;6.614;2023-02-18T17:07:22;8.82;;;2.85;;
39190;SDS011;24916;51.676;6.614;2023-02-18T17:09:47;6.57;;;2.95;;
39190;SDS011;24916;51.676;6.614;2023-02-18T17:12:12;7.60;;;3.50;;
39190;SDS011;24916;51.676;6.614;2023-02-18T17:14:38;10.10;;;5.53;;
39190;SDS011;24916;51.676;6.614;2023-02-18T17:17:08;21.83;;;12.90;;
39190;SDS011;24916;51.676;6.614;2023-02-18T17:19:35;16.17;;;10.82;;